createdAt,value
2022-11-28T00:01:43.003Z,14.85
2022-11-28T00:04:12.217Z,14.27
2022-11-28T00:06:45.259Z,15.18
2022-11-28T00:09:14.526Z,14.57
2022-11-28T00:11:45.501Z,14.77
2022-11-28T00:14:14.109Z,15.25
2022-11-28T00:16:42.417Z,15.23
2022-11-28T00:19:11.643Z,14.65
2022-11-28T00:21:40.495Z,15.20
2022-11-28T00:24:09.787Z,15.60
2022-11-28T00:26:40.097Z,15.55
2022-11-28T00:29:10.123Z,14.25
2022-11-28T00:31:42.970Z,14.60
2022-11-28T00:34:12.277Z,15.05
2022-11-28T00:36:40.698Z,14.32
2022-11-28T00:39:08.964Z,13.35
2022-11-28T00:41:37.144Z,12.32
2022-11-28T00:44:05.408Z,12.75
2022-11-28T00:46:34.938Z,12.05
2022-11-28T00:49:03.298Z,12.55
2022-11-28T00:51:32.978Z,12.18
2022-11-28T00:54:03.022Z,12.02
2022-11-28T00:56:33.829Z,12.57
2022-11-28T00:59:02.275Z,12.95
2022-11-28T01:01:32.135Z,13.48
2022-11-28T01:04:04.046Z,14.88
2022-11-28T01:06:34.462Z,14.70
2022-11-28T01:09:04.782Z,15.10
2022-11-28T01:11:33.068Z,13.85
2022-11-28T01:14:02.640Z,14.25
2022-11-28T01:16:31.139Z,15.35
2022-11-28T01:19:01.094Z,14.02
2022-11-28T01:21:29.553Z,14.63
2022-11-28T01:23:57.621Z,14.43
2022-11-28T01:26:28.231Z,14.60
2022-11-28T01:28:57.223Z,13.95
2022-11-28T01:31:27.527Z,12.50
2022-11-28T01:33:56.077Z,12.85
2022-11-28T01:36:26.296Z,13.10
2022-11-28T01:38:54.499Z,12.80
2022-11-28T01:41:25.334Z,13.93
2022-11-28T01:44:08.846Z,13.73
2022-11-28T01:46:38.071Z,13.32
2022-11-28T01:49:11.969Z,12.95
2022-11-28T01:51:46.196Z,14.55
2022-11-28T01:54:15.649Z,13.80
2022-11-28T01:56:48.468Z,13.35
2022-11-28T01:59:17.267Z,13.23
2022-11-28T02:01:46.497Z,14.30
2022-11-28T02:04:17.000Z,13.70
2022-11-28T02:06:46.839Z,12.88
2022-11-28T02:09:17.992Z,13.07
2022-11-28T02:12:13.442Z,13.02
2022-11-28T02:15:02.121Z,13.25
2022-11-28T02:17:41.695Z,13.15
2022-11-28T02:20:39.613Z,13.23
2022-11-28T02:23:15.169Z,12.75
2022-11-28T02:26:13.087Z,12.65
2022-11-28T02:29:13.727Z,13.27
2022-11-28T02:32:11.191Z,12.35
2022-11-28T02:34:51.684Z,12.70
2022-11-28T02:37:27.630Z,12.07
2022-11-28T02:40:07.692Z,11.82
2022-11-28T02:42:43.720Z,11.93
2022-11-28T02:45:20.858Z,11.07
2022-11-28T02:47:56.003Z,11.70
2022-11-28T02:50:28.529Z,12.20
2022-11-28T02:53:07.252Z,11.02
2022-11-28T02:55:39.779Z,10.82
2022-11-28T02:58:08.631Z,12.15
2022-11-28T03:00:39.522Z,11.50
2022-11-28T03:03:30.404Z,10.23
2022-11-28T03:06:03.007Z,11.45
2022-11-28T03:08:47.860Z,11.00
2022-11-28T03:11:20.942Z,11.20
2022-11-28T03:13:58.338Z,12.25
2022-11-28T03:16:30.462Z,11.25
2022-11-28T03:19:09.247Z,11.93
2022-11-28T03:21:41.485Z,11.68
2022-11-28T03:24:17.748Z,11.15
2022-11-28T03:26:53.939Z,12.05
2022-11-28T03:29:24.616Z,12.00
2022-11-28T03:31:56.480Z,11.55
2022-11-28T03:34:29.835Z,11.50
2022-11-28T03:37:02.654Z,10.80
2022-11-28T03:39:34.866Z,11.55
2022-11-28T03:42:08.827Z,13.02
2022-11-28T03:44:41.326Z,13.27
2022-11-28T03:47:11.559Z,12.77
2022-11-28T03:49:45.502Z,11.80
2022-11-28T03:52:19.593Z,12.27
2022-11-28T03:54:52.512Z,11.50
2022-11-28T03:57:25.873Z,11.35
2022-11-28T03:59:55.187Z,12.75
2022-11-28T04:02:30.121Z,11.77
2022-11-28T04:05:04.481Z,12.23
2022-11-28T04:07:38.766Z,11.07
2022-11-28T04:10:16.081Z,11.80
2022-11-28T04:12:53.859Z,11.52
2022-11-28T04:15:27.943Z,10.30
2022-11-28T04:18:00.876Z,10.93
2022-11-28T04:20:36.667Z,11.15
2022-11-28T04:23:09.877Z,10.50
2022-11-28T04:25:41.503Z,10.52
2022-11-28T04:28:16.555Z,11.20
2022-11-28T04:30:47.331Z,10.75
2022-11-28T04:33:17.060Z,11.20
2022-11-28T04:35:51.427Z,11.48
2022-11-28T04:38:22.145Z,10.93
2022-11-28T04:40:56.046Z,11.90
2022-11-28T04:43:29.981Z,12.25
2022-11-28T04:46:05.002Z,11.95
2022-11-28T04:48:34.589Z,12.18
2022-11-28T04:51:13.346Z,12.77
2022-11-28T04:53:46.726Z,12.27
2022-11-28T04:56:21.770Z,12.70
2022-11-28T04:58:51.860Z,13.02
2022-11-28T05:01:25.317Z,12.70
2022-11-28T05:03:53.942Z,11.93
2022-11-28T05:06:29.013Z,12.85
2022-11-28T05:08:57.254Z,13.25
2022-11-28T05:11:25.945Z,12.70
2022-11-28T05:13:56.682Z,14.63
2022-11-28T05:16:25.095Z,13.18
2022-11-28T05:18:53.202Z,13.63
2022-11-28T05:21:21.591Z,13.25
2022-11-28T05:23:51.045Z,12.20
2022-11-28T05:26:21.830Z,12.75
2022-11-28T05:28:52.569Z,11.80
2022-11-28T05:31:22.055Z,12.45
2022-11-28T05:33:50.238Z,13.75
2022-11-28T05:36:19.139Z,13.30
2022-11-28T05:38:47.394Z,12.20
2022-11-28T05:41:22.751Z,12.40
2022-11-28T05:43:51.251Z,13.35
2022-11-28T05:46:20.400Z,13.75
2022-11-28T05:48:51.125Z,12.52
2022-11-28T05:51:19.965Z,13.13
2022-11-28T05:53:48.086Z,12.93
2022-11-28T05:56:19.407Z,12.52
2022-11-28T05:58:50.556Z,12.25
2022-11-28T06:01:21.245Z,12.52
2022-11-28T06:03:49.348Z,12.73
2022-11-28T06:06:19.243Z,12.38
2022-11-28T06:08:48.552Z,12.15
2022-11-28T06:11:17.334Z,12.32
2022-11-28T06:13:46.689Z,12.55
2022-11-28T06:16:18.743Z,12.77
2022-11-28T06:18:47.301Z,13.40
2022-11-28T06:21:16.228Z,12.85
2022-11-28T06:23:44.221Z,13.15
2022-11-28T06:26:13.944Z,11.85
2022-11-28T06:28:42.083Z,12.85
2022-11-28T06:31:12.438Z,12.88
2022-11-28T06:33:42.516Z,12.90
2022-11-28T06:36:15.362Z,13.43
2022-11-28T06:38:43.706Z,12.55
2022-11-28T06:41:13.921Z,12.50
2022-11-28T06:43:42.216Z,12.27
2022-11-28T06:46:15.977Z,13.40
2022-11-28T06:48:46.316Z,12.02
2022-11-28T06:51:14.712Z,12.52
2022-11-28T06:53:43.298Z,12.18
2022-11-28T06:56:13.928Z,12.10
2022-11-28T06:58:42.698Z,13.25
2022-11-28T07:01:13.211Z,11.90
2022-11-28T07:03:41.620Z,12.98
2022-11-28T07:06:12.638Z,11.90
2022-11-28T07:08:41.059Z,12.25
2022-11-28T07:11:13.457Z,13.25
2022-11-28T07:13:43.033Z,12.43
2022-11-28T07:16:16.674Z,12.10
2022-11-28T07:18:45.036Z,12.25
2022-11-28T07:21:15.191Z,11.55
2022-11-28T07:23:44.278Z,12.43
2022-11-28T07:26:14.491Z,13.40
2022-11-28T07:28:43.058Z,12.63
2022-11-28T07:31:14.712Z,12.20
2022-11-28T07:33:44.817Z,10.50
2022-11-28T07:36:16.007Z,11.68
2022-11-28T07:38:44.332Z,11.52
2022-11-28T07:41:14.690Z,12.27
2022-11-28T07:43:45.850Z,11.52
2022-11-28T07:46:15.848Z,12.43
2022-11-28T07:48:44.383Z,12.63
2022-11-28T07:51:15.922Z,11.93
2022-11-28T07:53:44.206Z,11.35
2022-11-28T07:56:15.219Z,13.52
2022-11-28T07:58:44.708Z,11.80
2022-11-28T08:01:14.277Z,11.93
2022-11-28T08:03:42.779Z,11.07
2022-11-28T08:06:10.849Z,10.63
2022-11-28T08:08:40.637Z,11.55
2022-11-28T08:11:10.238Z,11.00
2022-11-28T08:13:39.719Z,11.60
2022-11-28T08:16:09.781Z,11.15
2022-11-28T08:18:38.121Z,11.88
2022-11-28T08:21:07.648Z,11.77
2022-11-28T08:23:37.056Z,12.18
2022-11-28T08:26:07.955Z,10.68
2022-11-28T08:28:36.784Z,10.48
2022-11-28T08:31:11.318Z,10.55
2022-11-28T08:33:39.907Z,10.27
2022-11-28T08:36:09.337Z,10.85
2022-11-28T08:38:38.174Z,10.55
2022-11-28T08:41:10.659Z,11.00
2022-11-28T08:43:39.790Z,11.15
2022-11-28T08:46:10.464Z,11.45
2022-11-28T08:48:39.464Z,11.65
2022-11-28T08:51:14.172Z,10.77
2022-11-28T08:53:48.766Z,10.85
2022-11-28T08:56:19.005Z,10.60
2022-11-28T08:58:47.322Z,11.00
2022-11-28T09:01:17.674Z,10.93
2022-11-28T09:03:46.305Z,10.95
2022-11-28T09:06:14.965Z,10.88
2022-11-28T09:08:43.528Z,10.15
2022-11-28T09:11:12.824Z,10.77
2022-11-28T09:13:42.779Z,10.00
2022-11-28T09:16:11.302Z,9.88
2022-11-28T09:18:39.588Z,10.82
2022-11-28T09:21:11.574Z,10.48
2022-11-28T09:23:41.667Z,10.00
2022-11-28T09:26:10.956Z,10.32
2022-11-28T09:28:39.078Z,10.60
2022-11-28T09:31:09.355Z,10.50
2022-11-28T09:33:37.589Z,9.85
2022-11-28T09:36:06.839Z,9.68
2022-11-28T09:38:35.212Z,10.73
2022-11-28T09:41:04.491Z,10.60
2022-11-28T09:43:36.587Z,10.10
2022-11-28T09:46:13.851Z,9.93
2022-11-28T09:48:46.947Z,10.70
2022-11-28T09:51:27.958Z,10.82
2022-11-28T09:54:04.544Z,9.70
2022-11-28T09:56:32.896Z,10.50
2022-11-28T09:59:03.530Z,9.50
2022-11-28T10:01:41.409Z,10.07
2022-11-28T10:04:15.093Z,8.95
2022-11-28T10:06:52.151Z,9.85
2022-11-28T10:09:34.768Z,10.40
2022-11-28T10:12:15.220Z,10.07
2022-11-28T10:15:02.516Z,9.80
2022-11-28T10:17:40.677Z,9.73
2022-11-28T10:20:14.864Z,9.40
2022-11-28T10:22:47.856Z,9.75
2022-11-28T10:25:19.953Z,9.90
2022-11-28T10:27:50.377Z,9.55
2022-11-28T10:30:24.039Z,10.63
2022-11-28T10:33:00.199Z,10.18
2022-11-28T10:35:35.294Z,9.95
2022-11-28T10:38:04.051Z,9.73
2022-11-28T10:40:44.152Z,10.75
2022-11-28T10:43:27.426Z,9.60
2022-11-28T10:46:05.631Z,10.63
2022-11-28T10:48:46.297Z,10.48
2022-11-28T10:51:27.282Z,10.02
2022-11-28T10:54:08.122Z,9.68
2022-11-28T10:56:44.094Z,10.63
2022-11-28T10:59:20.781Z,9.75
2022-11-28T11:01:51.003Z,10.07
2022-11-28T11:04:23.210Z,10.43
2022-11-28T11:07:15.045Z,10.00
2022-11-28T11:09:47.565Z,10.23
2022-11-28T11:12:22.390Z,10.48
2022-11-28T11:14:50.490Z,10.57
2022-11-28T11:17:36.263Z,10.00
2022-11-28T11:20:27.455Z,10.70
2022-11-28T11:22:57.016Z,10.20
2022-11-28T11:25:26.735Z,10.80
2022-11-28T11:27:57.034Z,10.63
2022-11-28T11:30:28.919Z,10.30
2022-11-28T11:32:58.744Z,10.18
2022-11-28T11:35:32.034Z,10.70
2022-11-28T11:38:17.582Z,11.02
2022-11-28T11:40:46.027Z,10.43
2022-11-28T11:43:29.117Z,11.18
2022-11-28T11:46:09.049Z,10.30
2022-11-28T11:48:39.496Z,11.13
2022-11-28T11:51:21.883Z,11.90
2022-11-28T11:53:50.264Z,10.88
2022-11-28T11:56:20.934Z,11.88
2022-11-28T11:58:53.814Z,10.23
2022-11-28T12:01:23.829Z,11.55
2022-11-28T12:03:57.286Z,10.90
2022-11-28T12:06:30.870Z,11.68
2022-11-28T12:09:38.986Z,10.80
2022-11-28T12:16:04.416Z,10.27
2022-11-28T12:18:44.368Z,11.43
2022-11-28T12:21:14.825Z,11.15
2022-11-28T12:24:02.589Z,11.48
2022-11-28T12:26:37.464Z,11.25
2022-11-28T12:29:30.147Z,10.88
2022-11-28T12:32:12.283Z,12.25
2022-11-28T12:34:51.026Z,11.98
2022-11-28T12:37:42.077Z,11.55
2022-11-28T12:40:32.130Z,11.02
2022-11-28T12:43:14.400Z,12.90
2022-11-28T12:45:49.347Z,11.20
2022-11-28T12:48:29.150Z,10.93
2022-11-28T12:51:03.672Z,12.20
2022-11-28T12:54:05.541Z,10.80
2022-11-28T12:56:46.386Z,11.02
2022-11-28T12:59:25.744Z,11.88
2022-11-28T13:02:33.335Z,11.52
2022-11-28T13:05:34.203Z,11.45
2022-11-28T13:08:34.207Z,12.82
2022-11-28T13:11:15.302Z,12.15
2022-11-28T13:13:50.657Z,11.63
2022-11-28T13:19:00.453Z,11.93
2022-11-28T13:21:39.945Z,11.88
2022-11-28T13:24:26.729Z,12.18
2022-11-28T13:27:18.632Z,11.55
2022-11-28T13:29:59.935Z,12.10
2022-11-28T13:32:36.967Z,11.20
2022-11-28T13:35:06.399Z,12.20
2022-11-28T13:40:35.999Z,11.95
2022-11-28T13:43:08.985Z,11.75
2022-11-28T13:45:42.222Z,11.63
2022-11-28T13:49:25.134Z,11.73
2022-11-28T13:51:39.539Z,12.00
2022-11-28T13:54:35.926Z,12.32
2022-11-28T13:57:21.601Z,12.13
2022-11-28T13:59:55.851Z,12.35
2022-11-28T14:02:35.632Z,11.73
2022-11-28T14:05:05.370Z,12.80
2022-11-28T14:07:34.996Z,11.20
2022-11-28T14:10:35.315Z,12.38
2022-11-28T14:13:30.332Z,11.68
2022-11-28T14:16:08.013Z,12.48
2022-11-28T14:18:58.221Z,12.85
2022-11-28T14:21:40.111Z,12.48
2022-11-28T14:24:18.976Z,12.65
2022-11-28T14:26:47.621Z,13.90
2022-11-28T14:29:25.912Z,12.90
2022-11-28T14:32:22.185Z,12.88
2022-11-28T14:34:47.562Z,13.55
2022-11-28T14:37:49.056Z,12.65
2022-11-28T14:40:58.963Z,13.15
2022-11-28T14:43:31.352Z,13.05
2022-11-28T14:46:22.938Z,13.27
2022-11-28T14:49:16.421Z,13.05
2022-11-28T14:52:37.021Z,12.88
2022-11-28T14:54:56.879Z,13.50
2022-11-28T14:57:27.898Z,13.73
2022-11-28T14:59:59.634Z,13.73
2022-11-28T15:02:39.185Z,12.98
2022-11-28T15:05:30.105Z,13.43
2022-11-28T15:08:18.037Z,13.85
2022-11-28T15:10:54.992Z,15.10
2022-11-28T15:13:35.537Z,14.40
2022-11-28T15:16:06.492Z,12.70
2022-11-28T15:18:36.048Z,13.63
2022-11-28T15:21:12.956Z,14.70
2022-11-28T15:23:42.382Z,13.48
2022-11-28T15:26:20.811Z,14.98
2022-11-28T15:29:09.350Z,13.60
2022-11-28T15:31:38.477Z,14.32
2022-11-28T15:34:10.878Z,14.80
2022-11-28T15:36:40.294Z,14.02
2022-11-28T15:39:25.803Z,14.02
2022-11-28T15:41:54.270Z,13.98
2022-11-28T15:44:22.542Z,14.48
2022-11-28T15:46:50.970Z,14.63
2022-11-28T15:49:29.231Z,14.48
2022-11-28T15:52:00.884Z,14.68
2022-11-28T15:54:41.061Z,15.52
2022-11-28T15:57:19.902Z,14.93
2022-11-28T15:59:48.207Z,14.63
2022-11-28T16:02:23.606Z,13.88
2022-11-28T16:04:56.112Z,15.48
2022-11-28T16:07:24.422Z,15.77
2022-11-28T16:09:59.648Z,17.23
2022-11-28T16:12:29.383Z,15.05
2022-11-28T16:15:03.277Z,15.35
2022-11-28T16:17:34.802Z,15.75
2022-11-28T16:20:04.640Z,15.70
2022-11-28T16:22:37.323Z,16.05
2022-11-28T16:25:22.969Z,14.57
2022-11-28T16:27:55.627Z,16.02
2022-11-28T16:30:36.755Z,16.27
2022-11-28T16:33:21.988Z,15.73
2022-11-28T16:35:50.616Z,16.25
2022-11-28T16:38:23.097Z,16.58
2022-11-28T16:41:00.077Z,16.85
2022-11-28T16:43:35.138Z,16.13
2022-11-28T16:46:06.351Z,16.52
2022-11-28T16:48:37.322Z,16.00
2022-11-28T16:51:37.010Z,16.55
2022-11-28T16:54:32.781Z,16.40
2022-11-28T16:57:14.531Z,16.38
2022-11-28T16:59:43.697Z,16.85
2022-11-28T17:02:17.536Z,16.90
2022-11-28T17:04:46.798Z,17.13
2022-11-28T17:07:18.595Z,17.27
2022-11-28T17:09:51.134Z,17.00
2022-11-28T17:12:26.067Z,17.00
2022-11-28T17:14:54.768Z,17.08
2022-11-28T17:17:24.492Z,16.33
2022-11-28T17:19:53.058Z,16.90
2022-11-28T17:22:22.731Z,18.48
2022-11-28T17:24:55.044Z,17.92
2022-11-28T17:27:24.459Z,18.35
2022-11-28T17:29:52.804Z,17.48
2022-11-28T17:32:21.293Z,18.08
2022-11-28T17:34:49.490Z,17.75
2022-11-28T17:37:17.645Z,18.50
2022-11-28T17:40:05.740Z,18.08
2022-11-28T17:42:35.165Z,17.35
2022-11-28T17:45:03.275Z,18.42
2022-11-28T17:47:31.373Z,18.95
2022-11-28T17:49:59.521Z,18.17
2022-11-28T17:52:30.274Z,17.98
2022-11-28T17:55:06.798Z,18.10
2022-11-28T17:57:39.443Z,17.83
2022-11-28T18:00:12.607Z,18.80
2022-11-28T18:02:45.975Z,17.90
2022-11-28T18:05:14.379Z,17.17
2022-11-28T18:07:42.528Z,18.17
2022-11-28T18:10:13.468Z,16.73
2022-11-28T18:12:43.298Z,17.48
2022-11-28T18:15:11.853Z,17.33
2022-11-28T18:17:40.058Z,17.00
2022-11-28T18:20:11.715Z,16.98
2022-11-28T18:22:40.399Z,17.00
2022-11-28T18:25:10.272Z,17.00
2022-11-28T18:27:38.611Z,17.10
2022-11-28T18:30:12.251Z,17.80
2022-11-28T18:32:40.547Z,17.08
2022-11-28T18:35:10.353Z,16.92
2022-11-28T18:37:39.299Z,16.90
2022-11-28T18:40:09.454Z,16.70
2022-11-28T18:42:38.343Z,16.08
2022-11-28T18:45:15.159Z,17.20
2022-11-28T18:47:45.718Z,16.58
2022-11-28T18:50:18.721Z,17.17
2022-11-28T18:52:49.411Z,16.50
2022-11-28T18:55:19.315Z,18.20
2022-11-28T18:57:47.364Z,17.13
2022-11-28T19:00:20.967Z,18.75
2022-11-28T19:02:54.115Z,18.15
2022-11-28T19:05:22.388Z,17.90
2022-11-28T19:07:56.146Z,16.75
2022-11-28T19:10:25.251Z,17.85
2022-11-28T19:12:53.512Z,17.63
2022-11-28T19:15:22.997Z,16.48
2022-11-28T19:17:51.295Z,16.55
2022-11-28T19:20:19.666Z,17.48
2022-11-28T19:22:49.133Z,16.52
2022-11-28T19:25:17.401Z,16.40
2022-11-28T19:27:45.468Z,16.38
2022-11-28T19:30:15.380Z,17.23
2022-11-28T19:32:45.190Z,16.35
2022-11-28T19:35:13.305Z,16.58
2022-11-28T19:37:42.198Z,15.73
2022-11-28T19:40:11.056Z,17.17
2022-11-28T19:42:39.776Z,16.15
2022-11-28T19:45:09.110Z,16.00
2022-11-28T19:47:40.041Z,16.02
2022-11-28T19:50:10.833Z,16.23
2022-11-28T19:52:39.040Z,16.38
2022-11-28T19:55:08.326Z,17.77
2022-11-28T19:57:37.311Z,16.90
2022-11-28T20:00:09.180Z,15.80
2022-11-28T20:02:41.992Z,16.42
2022-11-28T20:05:11.768Z,15.63
2022-11-28T20:07:39.892Z,15.60
2022-11-28T20:10:09.851Z,15.48
2022-11-28T20:12:40.400Z,15.38
2022-11-28T20:15:13.789Z,15.75
2022-11-28T20:17:45.029Z,15.38
2022-11-28T20:20:15.480Z,15.02
2022-11-28T20:22:43.829Z,14.60
2022-11-28T20:25:16.497Z,14.45
2022-11-28T20:27:51.430Z,14.88
2022-11-28T20:30:20.038Z,14.43
2022-11-28T20:32:49.438Z,14.55
2022-11-28T20:35:19.171Z,15.48
2022-11-28T20:37:47.360Z,14.50
2022-11-28T20:40:16.002Z,14.65
2022-11-28T20:42:44.077Z,14.65
2022-11-28T20:45:12.600Z,15.43
2022-11-28T20:47:43.262Z,14.90
2022-11-28T20:50:14.873Z,14.75
2022-11-28T20:52:44.315Z,14.48
2022-11-28T20:55:12.734Z,14.52
2022-11-28T20:57:40.834Z,14.45
2022-11-28T21:00:10.207Z,14.25
2022-11-28T21:02:38.388Z,13.80
2022-11-28T21:05:07.346Z,13.88
2022-11-28T21:07:35.696Z,13.65
2022-11-28T21:10:05.769Z,14.18
2022-11-28T21:12:33.878Z,13.77
2022-11-28T21:15:02.042Z,14.00
2022-11-28T21:17:30.219Z,14.18
2022-11-28T21:19:58.280Z,14.00
2022-11-28T21:22:26.438Z,14.13
2022-11-28T21:24:54.464Z,14.15
2022-11-28T21:27:23.875Z,14.02
2022-11-28T21:29:52.238Z,15.35
2022-11-28T21:32:20.490Z,14.98
2022-11-28T21:34:48.652Z,14.50
2022-11-28T21:37:16.755Z,15.23
2022-11-28T21:39:45.011Z,14.18
2022-11-28T21:42:18.912Z,15.27
2022-11-28T21:44:49.951Z,14.90
2022-11-28T21:47:18.009Z,15.82
2022-11-28T21:49:48.477Z,15.93
2022-11-28T21:52:19.233Z,15.52
2022-11-28T21:54:47.267Z,14.95
2022-11-28T21:57:15.311Z,14.07
2022-11-28T21:59:44.541Z,15.75
2022-11-28T22:02:15.666Z,14.88
2022-11-28T22:04:44.525Z,15.68
2022-11-28T22:07:13.377Z,15.10
2022-11-28T22:09:41.614Z,14.65
2022-11-28T22:12:09.902Z,14.80
2022-11-28T22:14:38.150Z,14.18
2022-11-28T22:17:06.318Z,14.55
2022-11-28T22:19:36.464Z,14.35
2022-11-28T22:22:04.497Z,15.77
2022-11-28T22:24:33.521Z,14.93
2022-11-28T22:27:01.638Z,14.27
2022-11-28T22:29:29.939Z,14.60
2022-11-28T22:31:58.382Z,14.63
2022-11-28T22:34:26.480Z,14.75
2022-11-28T22:36:56.948Z,14.52
2022-11-28T22:39:24.945Z,14.07
2022-11-28T22:41:53.863Z,13.93
2022-11-28T22:44:22.385Z,14.93
2022-11-28T22:46:50.790Z,14.07
2022-11-28T22:49:19.799Z,14.82
2022-11-28T22:51:48.666Z,14.27
2022-11-28T22:54:18.145Z,15.35
2022-11-28T22:56:46.254Z,14.52
2022-11-28T22:59:16.157Z,14.25
2022-11-28T23:01:44.649Z,15.27
2022-11-28T23:04:13.428Z,15.15
2022-11-28T23:06:41.479Z,14.60
2022-11-28T23:09:11.670Z,15.05
2022-11-28T23:11:42.060Z,14.82
2022-11-28T23:14:15.028Z,14.30
2022-11-28T23:16:44.955Z,14.57
2022-11-28T23:19:16.037Z,15.10
2022-11-28T23:21:47.429Z,14.55
2022-11-28T23:24:18.343Z,14.98
2022-11-28T23:26:49.560Z,14.75
2022-11-28T23:29:18.751Z,15.80
2022-11-28T23:31:47.864Z,15.15
2022-11-28T23:34:16.122Z,15.07
2022-11-28T23:36:46.225Z,15.40
2022-11-28T23:39:18.679Z,14.93
2022-11-28T23:41:48.415Z,14.52
2022-11-28T23:44:18.088Z,15.25
2022-11-28T23:46:46.999Z,14.85
2022-11-28T23:49:15.435Z,14.65
2022-11-28T23:51:45.586Z,14.73
2022-11-28T23:54:13.871Z,14.02
2022-11-28T23:56:44.585Z,14.65
2022-11-28T23:59:14.356Z,15.95
